Time;durP1;ratioP1;P1;durP2;ratioP2;P2;SDS_P1;SDS_P2;PMS_P1;PMS_P2;Temp;Humidity;BMP_temperature;BMP_pressure;BME280_temperature;BME280_humidity;BME280_pressure;Samples;Min_cycle;Max_cycle;Signal;HPM_P1;HPM_P2
2022/12/22 03:26:34;;;;;;;474.58;55.63;;;;;;;;;;5048565;28;20457;-70
2022/12/22 03:29:00;;;;;;;388.83;54.95;;;;;;;;;;5032225;28;20037;-70
2022/12/22 03:31:26;;;;;;;418.58;53.55;;;;;;;;;;5046776;28;20163;-69
2022/12/22 03:33:52;;;;;;;465.40;59.13;;;;;;;;;;5047009;28;20037;-70
2022/12/22 03:36:18;;;;;;;303.60;53.42;;;;;;;;;;5031445;28;20029;-69
2022/12/22 03:38:44;;;;;;;438.77;56.25;;;;;;;;;;5038232;28;20033;-73
2022/12/22 03:46:29;;;;;;;292.75;50.10;;;;;;;;;;5046853;28;20040;-71
2022/12/22 03:46:41;;;;;;;287.90;51.72;;;;;;;;;;5041430;28;20052;-71
2022/12/22 03:49:09;;;;;;;345.92;54.13;;;;;;;;;;5049836;28;20045;-70
2022/12/22 03:51:40;;;;;;;234.75;53.28;;;;;;;;;;5048250;28;20021;-69
2022/12/22 03:54:06;;;;;;;291.02;51.28;;;;;;;;;;5049963;28;20056;-69
2022/12/22 03:56:32;;;;;;;191.18;49.60;;;;;;;;;;5048676;28;20033;-71
2022/12/22 03:58:58;;;;;;;211.65;50.58;;;;;;;;;;5053090;28;20044;-70
2022/12/22 04:01:24;;;;;;;202.57;47.88;;;;;;;;;;5050300;28;20466;-70
2022/12/22 04:03:50;;;;;;;359.90;51.38;;;;;;;;;;5051459;28;20107;-71
2022/12/22 04:06:17;;;;;;;296.83;51.60;;;;;;;;;;5052414;28;20032;-69
2022/12/22 04:08:44;;;;;;;291.40;48.75;;;;;;;;;;5050726;28;20120;-70
2022/12/22 04:13:56;;;;;;;279.50;48.30;;;;;;;;;;5051861;28;20043;-71
2022/12/22 04:16:22;;;;;;;347.13;51.03;;;;;;;;;;5047125;28;20025;-70
2022/12/22 04:18:48;;;;;;;256.92;47.33;;;;;;;;;;5047465;28;20029;-71
2022/12/22 04:21:14;;;;;;;229.65;45.20;;;;;;;;;;5050936;28;20025;-70
2022/12/22 04:23:40;;;;;;;224.65;44.38;;;;;;;;;;5047926;28;20040;-70
2022/12/22 04:26:06;;;;;;;253.05;45.67;;;;;;;;;;5015927;28;20814;-70
2022/12/22 04:28:32;;;;;;;199.98;43.72;;;;;;;;;;5041225;28;20041;-70
2022/12/22 04:30:58;;;;;;;182.10;42.45;;;;;;;;;;5052969;28;20032;-71
2022/12/22 04:33:24;;;;;;;148.30;40.28;;;;;;;;;;5050098;28;20025;-71
2022/12/22 04:35:50;;;;;;;165.93;41.28;;;;;;;;;;5051132;28;20497;-70
2022/12/22 04:38:16;;;;;;;133.15;39.95;;;;;;;;;;5047558;28;20036;-70
2022/12/22 04:40:42;;;;;;;138.80;38.00;;;;;;;;;;5040065;28;20029;-71
2022/12/22 04:43:08;;;;;;;156.18;40.38;;;;;;;;;;5033061;28;20041;-75
2022/12/22 04:45:34;;;;;;;150.73;41.00;;;;;;;;;;5049889;28;20029;-70
2022/12/22 04:48:00;;;;;;;168.93;41.28;;;;;;;;;;5051752;28;20048;-70
2022/12/22 04:50:26;;;;;;;140.82;39.65;;;;;;;;;;5049837;28;20060;-70
2022/12/22 04:52:52;;;;;;;145.27;41.13;;;;;;;;;;5050550;28;20038;-70
2022/12/22 04:55:18;;;;;;;123.60;40.30;;;;;;;;;;5052653;28;20612;-71
2022/12/22 04:57:44;;;;;;;128.60;41.10;;;;;;;;;;5050095;28;20033;-70
2022/12/22 05:00:11;;;;;;;128.35;40.78;;;;;;;;;;5051409;28;20055;-69
2022/12/22 05:02:37;;;;;;;145.10;41.08;;;;;;;;;;5051856;28;20032;-69
2022/12/22 05:05:03;;;;;;;151.98;39.45;;;;;;;;;;5039074;28;20036;-70
2022/12/22 05:07:29;;;;;;;120.25;36.25;;;;;;;;;;5050613;28;20077;-71
2022/12/22 05:09:55;;;;;;;149.65;40.95;;;;;;;;;;5047954;28;20082;-70
2022/12/22 05:13:06;;;;;;;154.55;40.75;;;;;;;;;;5049034;28;20496;-70
2022/12/22 05:15:07;;;;;;;132.20;39.15;;;;;;;;;;5030891;28;20111;-69
2022/12/22 05:17:33;;;;;;;146.93;39.10;;;;;;;;;;5050551;28;20111;-69
2022/12/22 05:19:59;;;;;;;142.10;38.80;;;;;;;;;;5032022;28;20104;-70
2022/12/22 05:22:25;;;;;;;164.55;41.42;;;;;;;;;;5050188;28;20040;-71
2022/12/22 05:24:51;;;;;;;156.90;39.50;;;;;;;;;;5046904;28;20037;-70
2022/12/22 05:27:17;;;;;;;147.45;39.90;;;;;;;;;;5049505;28;20469;-71
2022/12/22 05:29:43;;;;;;;124.78;37.75;;;;;;;;;;5021856;28;20033;-71
2022/12/22 05:32:09;;;;;;;120.95;37.13;;;;;;;;;;5045843;28;20413;-70
2022/12/22 05:34:35;;;;;;;115.85;36.88;;;;;;;;;;5047503;28;20033;-71
2022/12/22 05:37:01;;;;;;;101.53;35.10;;;;;;;;;;5051529;28;20033;-70
2022/12/22 05:39:27;;;;;;;104.80;33.20;;;;;;;;;;5032320;28;20435;-70
2022/12/22 05:41:53;;;;;;;94.13;32.70;;;;;;;;;;5050649;28;20039;-70
2022/12/22 05:44:19;;;;;;;106.43;31.98;;;;;;;;;;5050153;28;20036;-70
2022/12/22 05:46:45;;;;;;;89.78;32.30;;;;;;;;;;5048896;28;20057;-70
2022/12/22 05:49:11;;;;;;;85.60;33.58;;;;;;;;;;5044263;28;20476;-70
2022/12/22 05:51:37;;;;;;;84.68;31.48;;;;;;;;;;5049910;28;20084;-71
2022/12/22 05:54:03;;;;;;;93.05;32.80;;;;;;;;;;5049247;28;20431;-71
2022/12/22 05:56:29;;;;;;;87.50;32.25;;;;;;;;;;5048678;28;20037;-70
2022/12/22 05:58:55;;;;;;;95.53;32.67;;;;;;;;;;5050590;28;20366;-71
2022/12/22 06:01:21;;;;;;;86.97;31.67;;;;;;;;;;5049579;28;20041;-74
2022/12/22 06:03:47;;;;;;;102.30;32.13;;;;;;;;;;5050811;28;20032;-70
2022/12/22 06:06:13;;;;;;;101.72;31.55;;;;;;;;;;5047919;28;20521;-72
2022/12/22 06:08:39;;;;;;;106.85;30.58;;;;;;;;;;5047284;28;20041;-71
2022/12/22 06:11:05;;;;;;;109.45;31.35;;;;;;;;;;5042453;28;20053;-71
2022/12/22 06:13:31;;;;;;;106.30;30.85;;;;;;;;;;5026810;28;20067;-71
2022/12/22 06:15:57;;;;;;;127.47;29.80;;;;;;;;;;5044345;28;20029;-71
2022/12/22 06:18:23;;;;;;;114.72;26.88;;;;;;;;;;5026691;28;20040;-70
2022/12/22 06:20:52;;;;;;;96.20;23.50;;;;;;;;;;5036512;28;20485;-70
2022/12/22 06:23:18;;;;;;;90.93;21.30;;;;;;;;;;5043887;28;20037;-71
2022/12/22 06:25:53;;;;;;;91.00;20.75;;;;;;;;;;5044795;28;20037;-73
2022/12/22 06:28:19;;;;;;;109.50;22.15;;;;;;;;;;5040557;28;20044;-76
2022/12/22 06:30:45;;;;;;;91.40;21.70;;;;;;;;;;5037105;28;20044;-74
2022/12/22 06:33:11;;;;;;;78.47;20.30;;;;;;;;;;5040931;28;20404;-70
2022/12/22 06:35:37;;;;;;;72.38;18.67;;;;;;;;;;5028136;28;20041;-70
2022/12/22 06:38:02;;;;;;;89.63;20.55;;;;;;;;;;5045197;28;20123;-68
2022/12/22 06:40:28;;;;;;;111.65;21.05;;;;;;;;;;5024299;28;20487;-70
2022/12/22 06:43:10;;;;;;;115.53;20.02;;;;;;;;;;5048209;28;20029;-69
2022/12/22 06:45:40;;;;;;;171.05;19.77;;;;;;;;;;5044726;28;20115;-71
2022/12/22 06:48:06;;;;;;;113.32;19.20;;;;;;;;;;5048672;28;20025;-69
2022/12/22 06:50:32;;;;;;;174.23;20.55;;;;;;;;;;5050727;28;20025;-69
2022/12/22 06:52:58;;;;;;;224.68;20.45;;;;;;;;;;5049954;28;20369;-71
2022/12/22 06:55:24;;;;;;;254.52;19.98;;;;;;;;;;5045748;28;20377;-71
2022/12/22 06:57:50;;;;;;;242.23;19.70;;;;;;;;;;5044289;28;20051;-73
2022/12/22 07:00:16;;;;;;;156.75;31.83;;;;;;;;;;5045491;28;20086;-69
2022/12/22 07:02:42;;;;;;;177.15;22.75;;;;;;;;;;5037797;28;20028;-72
2022/12/22 07:05:08;;;;;;;134.98;19.73;;;;;;;;;;5049165;28;20037;-71
2022/12/22 07:07:34;;;;;;;188.82;21.45;;;;;;;;;;5049850;28;20477;-72
2022/12/22 07:10:01;;;;;;;106.40;19.13;;;;;;;;;;5033618;28;20022;-71
2022/12/22 07:12:26;;;;;;;138.05;17.40;;;;;;;;;;5043420;28;20063;-70
2022/12/22 07:14:53;;;;;;;157.50;18.30;;;;;;;;;;5045169;28;20036;-73
2022/12/22 07:17:19;;;;;;;168.82;19.15;;;;;;;;;;5053607;28;20524;-71
2022/12/22 07:19:45;;;;;;;134.40;16.55;;;;;;;;;;5049933;28;20033;-69
2022/12/22 07:22:11;;;;;;;78.97;14.40;;;;;;;;;;5050692;28;20078;-70
2022/12/22 07:24:37;;;;;;;94.43;15.52;;;;;;;;;;5039791;28;20032;-70
2022/12/22 07:27:03;;;;;;;77.15;14.95;;;;;;;;;;5049970;28;20128;-69
2022/12/22 07:29:29;;;;;;;104.88;15.23;;;;;;;;;;5043796;28;20081;-70
2022/12/22 07:31:56;;;;;;;75.38;14.88;;;;;;;;;;5034166;28;20358;-69
2022/12/22 07:34:22;;;;;;;111.93;14.52;;;;;;;;;;5055082;28;20037;-72
2022/12/22 07:36:48;;;;;;;99.68;12.35;;;;;;;;;;5052289;28;20033;-69
2022/12/22 07:39:14;;;;;;;184.48;15.38;;;;;;;;;;5054307;28;20165;-70
2022/12/22 07:44:25;;;;;;;94.97;11.52;;;;;;;;;;5046041;28;20496;-69
2022/12/22 07:46:51;;;;;;;81.35;11.18;;;;;;;;;;5043220;28;20045;-73
2022/12/22 07:52:02;;;;;;;95.43;12.50;;;;;;;;;;5050036;28;20032;-70
2022/12/22 07:54:28;;;;;;;102.07;12.98;;;;;;;;;;5045619;28;20075;-72
2022/12/22 07:56:54;;;;;;;221.35;16.83;;;;;;;;;;5048264;28;20049;-72
2022/12/22 07:59:20;;;;;;;238.27;83.55;;;;;;;;;;5052990;28;20472;-75
2022/12/22 08:01:47;;;;;;;127.15;11.90;;;;;;;;;;5041291;28;20029;-73
2022/12/22 08:04:13;;;;;;;198.80;14.55;;;;;;;;;;5029505;28;20102;-73
2022/12/22 08:06:40;;;;;;;164.30;12.98;;;;;;;;;;5050790;28;20036;-71
2022/12/22 08:09:06;;;;;;;112.80;14.30;;;;;;;;;;5049759;28;20127;-72
2022/12/22 08:11:33;;;;;;;129.40;11.75;;;;;;;;;;5051445;28;20041;-71
2022/12/22 08:13:59;;;;;;;92.72;11.05;;;;;;;;;;5051574;28;20017;-71
2022/12/22 08:16:26;;;;;;;163.75;12.60;;;;;;;;;;5049459;28;20044;-70
2022/12/22 08:18:52;;;;;;;95.93;11.80;;;;;;;;;;5046468;28;20037;-75
2022/12/22 08:21:18;;;;;;;156.20;14.90;;;;;;;;;;5049227;28;20067;-71
2022/12/22 08:23:44;;;;;;;161.20;14.02;;;;;;;;;;5049243;28;20462;-71
2022/12/22 08:26:13;;;;;;;98.13;11.13;;;;;;;;;;5029677;28;20037;-72
2022/12/22 08:28:44;;;;;;;151.85;14.95;;;;;;;;;;5049897;28;20041;-75
2022/12/22 08:31:10;;;;;;;127.10;12.93;;;;;;;;;;5046966;28;20029;-71
2022/12/22 08:33:36;;;;;;;90.55;12.13;;;;;;;;;;5041547;28;20480;-70
2022/12/22 08:36:02;;;;;;;68.25;11.43;;;;;;;;;;5051501;28;20037;-70
2022/12/22 08:38:30;;;;;;;75.18;11.30;;;;;;;;;;5051875;28;20044;-72
2022/12/22 08:40:56;;;;;;;105.90;11.20;;;;;;;;;;5048107;28;20465;-71
2022/12/22 08:43:23;;;;;;;208.32;16.00;;;;;;;;;;5042704;28;20024;-72
2022/12/22 08:45:49;;;;;;;100.47;12.50;;;;;;;;;;5047492;28;20033;-70
2022/12/22 08:48:15;;;;;;;64.03;11.98;;;;;;;;;;5046826;28;20152;-70
2022/12/22 08:50:42;;;;;;;112.75;14.07;;;;;;;;;;5048910;28;20537;-76
2022/12/22 08:53:08;;;;;;;99.40;13.77;;;;;;;;;;5051392;28;20028;-69
2022/12/22 08:55:35;;;;;;;76.38;12.35;;;;;;;;;;5037356;28;20025;-72
2022/12/22 08:58:01;;;;;;;59.78;12.60;;;;;;;;;;5049911;28;20080;-71
2022/12/22 09:00:27;;;;;;;107.47;10.93;;;;;;;;;;5042375;28;20391;-70
2022/12/22 09:02:53;;;;;;;83.13;11.13;;;;;;;;;;5045544;28;20054;-70
2022/12/22 09:05:19;;;;;;;84.15;11.63;;;;;;;;;;5040452;28;20035;-73
2022/12/22 09:07:46;;;;;;;93.53;13.32;;;;;;;;;;5049928;28;20033;-71
2022/12/22 09:10:12;;;;;;;55.40;12.30;;;;;;;;;;5028252;28;20037;-74
2022/12/22 09:12:38;;;;;;;31.70;11.30;;;;;;;;;;5063142;28;20013;-76
2022/12/22 09:15:05;;;;;;;41.70;12.50;;;;;;;;;;5052314;28;20048;-71
2022/12/22 09:17:32;;;;;;;50.47;12.15;;;;;;;;;;5051814;28;20040;-71
2022/12/22 09:19:58;;;;;;;57.92;13.80;;;;;;;;;;5046917;28;20070;-72
2022/12/22 09:22:24;;;;;;;57.38;21.95;;;;;;;;;;5042742;28;20025;-70
2022/12/22 09:24:50;;;;;;;85.72;37.30;;;;;;;;;;5051068;28;20033;-71
2022/12/22 09:27:16;;;;;;;48.40;12.23;;;;;;;;;;5049794;28;20017;-70
2022/12/22 09:29:42;;;;;;;54.83;12.95;;;;;;;;;;5042961;28;20032;-71
2022/12/22 09:32:08;;;;;;;40.78;13.70;;;;;;;;;;5019359;28;20048;-71
2022/12/22 09:34:34;;;;;;;34.25;13.10;;;;;;;;;;5051645;28;20117;-69
2022/12/22 09:37:00;;;;;;;46.72;15.07;;;;;;;;;;5048701;28;21507;-71
2022/12/22 09:39:27;;;;;;;36.05;13.05;;;;;;;;;;5046788;28;20021;-69
2022/12/22 09:41:54;;;;;;;35.50;12.05;;;;;;;;;;5031985;28;20037;-74
2022/12/22 09:44:23;;;;;;;35.38;12.07;;;;;;;;;;5043259;28;20029;-69
2022/12/22 09:46:50;;;;;;;43.28;12.90;;;;;;;;;;5033499;28;20095;-71
2022/12/22 09:49:17;;;;;;;39.05;12.10;;;;;;;;;;5040464;28;20048;-71
2022/12/22 09:51:46;;;;;;;41.72;20.23;;;;;;;;;;5020200;28;20041;-70
2022/12/22 09:54:13;;;;;;;27.98;13.27;;;;;;;;;;5031542;28;20036;-71
2022/12/22 09:56:39;;;;;;;30.95;10.55;;;;;;;;;;5040242;28;20028;-71
2022/12/22 09:59:13;;;;;;;20.23;8.40;;;;;;;;;;5039936;28;20032;-70
2022/12/22 10:01:57;;;;;;;21.10;8.10;;;;;;;;;;5046342;28;20358;-69
2022/12/22 10:04:23;;;;;;;18.33;7.38;;;;;;;;;;5049231;28;20020;-71
2022/12/22 10:06:54;;;;;;;13.75;6.75;;;;;;;;;;5051812;28;20048;-73
2022/12/22 10:09:24;;;;;;;15.90;6.95;;;;;;;;;;5048260;28;20587;-72
2022/12/22 10:12:01;;;;;;;17.70;6.55;;;;;;;;;;5051383;28;20497;-71
2022/12/22 10:14:42;;;;;;;15.73;7.25;;;;;;;;;;5051734;28;20064;-72
2022/12/22 10:17:17;;;;;;;16.95;6.97;;;;;;;;;;5051285;28;20029;-70
2022/12/22 10:19:43;;;;;;;11.45;6.20;;;;;;;;;;5049005;28;20024;-72
2022/12/22 10:22:38;;;;;;;16.63;7.55;;;;;;;;;;5049075;28;20029;-72
2022/12/22 10:25:05;;;;;;;17.95;7.97;;;;;;;;;;5023032;28;20120;-71
2022/12/22 10:27:33;;;;;;;19.92;9.13;;;;;;;;;;5033658;28;20100;-70
2022/12/22 10:30:18;;;;;;;24.75;9.43;;;;;;;;;;5044704;28;20100;-70
2022/12/22 10:33:02;;;;;;;24.60;9.10;;;;;;;;;;5040352;28;20029;-70
2022/12/22 10:35:37;;;;;;;30.63;10.48;;;;;;;;;;5024925;28;20063;-70
2022/12/22 10:38:13;;;;;;;24.02;9.30;;;;;;;;;;5052295;28;20040;-71
2022/12/22 10:40:43;;;;;;;23.55;10.38;;;;;;;;;;5036258;28;20041;-69
2022/12/22 10:43:09;;;;;;;22.23;8.98;;;;;;;;;;5049335;28;20025;-70
2022/12/22 10:45:36;;;;;;;17.65;8.00;;;;;;;;;;5032704;28;20159;-72
2022/12/22 10:48:02;;;;;;;20.52;7.38;;;;;;;;;;5047145;28;20041;-71
2022/12/22 10:50:28;;;;;;;14.98;7.10;;;;;;;;;;5037538;28;20100;-73
2022/12/22 10:52:55;;;;;;;18.55;8.15;;;;;;;;;;5033102;28;20032;-71
2022/12/22 10:55:29;;;;;;;19.75;7.78;;;;;;;;;;5029631;28;20024;-71
2022/12/22 10:58:10;;;;;;;14.80;7.78;;;;;;;;;;5047735;28;20424;-72
2022/12/22 11:00:40;;;;;;;18.48;7.68;;;;;;;;;;5046221;28;20453;-71
2022/12/22 11:03:10;;;;;;;16.80;7.18;;;;;;;;;;5027267;28;20615;-72
2022/12/22 11:05:36;;;;;;;16.10;5.30;;;;;;;;;;5048850;28;20020;-74
2022/12/22 11:08:18;;;;;;;15.48;5.57;;;;;;;;;;5047496;28;20551;-72
2022/12/22 11:10:48;;;;;;;15.23;5.18;;;;;;;;;;5041693;28;20038;-71
2022/12/22 11:13:22;;;;;;;14.85;5.00;;;;;;;;;;5040163;28;20029;-71
2022/12/22 11:16:01;;;;;;;14.60;4.80;;;;;;;;;;5049391;28;20025;-70
2022/12/22 11:18:45;;;;;;;10.52;4.22;;;;;;;;;;5046596;28;20033;-71
2022/12/22 11:21:14;;;;;;;12.80;4.53;;;;;;;;;;5045703;28;20018;-70
2022/12/22 11:23:49;;;;;;;20.20;6.32;;;;;;;;;;5047710;28;20064;-72
2022/12/22 11:26:34;;;;;;;14.98;4.35;;;;;;;;;;5046953;28;20108;-70
2022/12/22 11:29:12;;;;;;;10.25;3.63;;;;;;;;;;5046508;28;20044;-71
2022/12/22 11:31:44;;;;;;;13.20;4.28;;;;;;;;;;5047554;28;20028;-72
2022/12/22 11:34:19;;;;;;;12.15;3.97;;;;;;;;;;5073063;28;20434;-72
2022/12/22 11:36:54;;;;;;;13.05;4.20;;;;;;;;;;5022456;28;20025;-70
2022/12/22 11:39:30;;;;;;;8.00;3.33;;;;;;;;;;5044193;28;20032;-71
2022/12/22 11:41:56;;;;;;;12.07;3.70;;;;;;;;;;5039918;28;20377;-70
2022/12/22 11:44:22;;;;;;;12.73;4.40;;;;;;;;;;5042426;28;20246;-70
2022/12/22 11:47:07;;;;;;;12.48;3.85;;;;;;;;;;5047475;28;20087;-71
2022/12/22 11:49:39;;;;;;;12.30;3.72;;;;;;;;;;5045264;28;20469;-70
2022/12/22 11:52:17;;;;;;;14.98;4.72;;;;;;;;;;5040326;28;20029;-70
2022/12/22 11:55:06;;;;;;;15.88;4.25;;;;;;;;;;5041790;28;20025;-69
2022/12/22 11:57:35;;;;;;;18.17;5.07;;;;;;;;;;5041398;28;20086;-70
2022/12/22 12:00:14;;;;;;;18.67;5.38;;;;;;;;;;5037309;28;20492;-72
2022/12/22 12:02:53;;;;;;;15.40;4.63;;;;;;;;;;5039672;28;20029;-72
2022/12/22 12:05:37;;;;;;;11.25;4.40;;;;;;;;;;5039003;28;20060;-73
2022/12/22 12:08:22;;;;;;;15.05;3.70;;;;;;;;;;5039518;28;20179;-72
2022/12/22 12:10:53;;;;;;;14.18;4.07;;;;;;;;;;5027440;28;20044;-70
2022/12/22 12:13:37;;;;;;;18.65;4.43;;;;;;;;;;5028583;28;20017;-70
2022/12/22 12:16:03;;;;;;;20.95;4.93;;;;;;;;;;5021456;28;20437;-69
2022/12/22 12:18:32;;;;;;;11.02;4.28;;;;;;;;;;5016559;28;20057;-71
2022/12/22 12:20:58;;;;;;;16.27;4.43;;;;;;;;;;5032078;28;20054;-70
2022/12/22 12:23:36;;;;;;;15.38;5.13;;;;;;;;;;5032434;28;20516;-70
2022/12/22 12:26:02;;;;;;;13.75;4.43;;;;;;;;;;5029045;28;20055;-70
2022/12/22 12:28:46;;;;;;;14.50;4.60;;;;;;;;;;5036110;28;20065;-74
2022/12/22 12:31:13;;;;;;;15.52;5.70;;;;;;;;;;5021078;28;20104;-70
2022/12/22 12:33:47;;;;;;;15.45;4.82;;;;;;;;;;5033700;28;20105;-71
2022/12/22 12:36:17;;;;;;;20.95;5.25;;;;;;;;;;5029218;28;20025;-70
2022/12/22 12:38:47;;;;;;;15.52;5.47;;;;;;;;;;5032764;28;20470;-71
2022/12/22 12:41:16;;;;;;;12.98;5.68;;;;;;;;;;5020849;28;20076;-71
2022/12/22 12:43:42;;;;;;;16.83;4.57;;;;;;;;;;5030840;28;20037;-72
2022/12/22 12:46:27;;;;;;;19.85;5.13;;;;;;;;;;5028027;28;20030;-72
2022/12/22 12:48:55;;;;;;;13.60;3.60;;;;;;;;;;5033858;28;20099;-71
2022/12/22 12:51:47;;;;;;;13.95;5.53;;;;;;;;;;5024757;28;20121;-71
2022/12/22 12:54:39;;;;;;;10.68;3.97;;;;;;;;;;5024890;28;20076;-73
2022/12/22 12:57:24;;;;;;;17.70;4.95;;;;;;;;;;5027664;28;20037;-70
2022/12/22 12:59:52;;;;;;;13.98;3.53;;;;;;;;;;5031401;28;20060;-71
2022/12/22 13:02:24;;;;;;;10.93;3.95;;;;;;;;;;5032741;28;20517;-71
2022/12/22 13:05:01;;;;;;;20.60;7.00;;;;;;;;;;5031677;28;20064;-71
2022/12/22 13:07:45;;;;;;;13.85;5.07;;;;;;;;;;5016213;28;20026;-70
2022/12/22 13:10:18;;;;;;;16.63;5.18;;;;;;;;;;5013405;28;20030;-70
2022/12/22 13:12:52;;;;;;;15.85;4.13;;;;;;;;;;5034043;28;20449;-71
2022/12/22 13:15:29;;;;;;;19.08;5.43;;;;;;;;;;5033671;28;20339;-70
2022/12/22 13:17:55;;;;;;;12.90;4.20;;;;;;;;;;5034161;28;20025;-70
2022/12/22 13:20:24;;;;;;;12.75;4.57;;;;;;;;;;5039620;28;20041;-70
2022/12/22 13:22:57;;;;;;;19.10;5.00;;;;;;;;;;5048919;28;20548;-71
2022/12/22 13:25:25;;;;;;;16.17;5.40;;;;;;;;;;5050835;28;20096;-70
2022/12/22 13:27:51;;;;;;;14.90;4.47;;;;;;;;;;5049594;28;20041;-70
2022/12/22 13:30:19;;;;;;;18.45;5.57;;;;;;;;;;5028867;28;20056;-71
2022/12/22 13:32:46;;;;;;;13.73;3.65;;;;;;;;;;5048019;28;20357;-69
2022/12/22 13:35:22;;;;;;;21.75;4.45;;;;;;;;;;5052263;28;20112;-70
2022/12/22 13:37:52;;;;;;;12.35;4.32;;;;;;;;;;5049907;28;20087;-71
2022/12/22 13:40:23;;;;;;;12.27;2.83;;;;;;;;;;5034321;28;20021;-73
2022/12/22 13:43:15;;;;;;;10.82;3.28;;;;;;;;;;5050724;28;20104;-70
2022/12/22 13:45:41;;;;;;;12.83;3.70;;;;;;;;;;5046994;28;20408;-70
2022/12/22 13:48:09;;;;;;;14.95;3.50;;;;;;;;;;5049951;28;20362;-70
2022/12/22 13:50:41;;;;;;;16.60;4.10;;;;;;;;;;5052120;28;20086;-70
2022/12/22 13:53:09;;;;;;;20.23;4.60;;;;;;;;;;5021223;28;20035;-71
2022/12/22 13:55:35;;;;;;;9.90;3.63;;;;;;;;;;5051918;28;20033;-71
2022/12/22 13:58:17;;;;;;;10.88;3.05;;;;;;;;;;5049435;28;20040;-71
2022/12/22 14:00:43;;;;;;;21.92;3.58;;;;;;;;;;5045216;28;20132;-71
2022/12/22 14:03:18;;;;;;;14.18;3.88;;;;;;;;;;5035018;28;20132;-71
2022/12/22 14:05:44;;;;;;;11.65;4.45;;;;;;;;;;5051891;28;20017;-71
2022/12/22 14:08:12;;;;;;;8.48;3.00;;;;;;;;;;5051890;28;20041;-70
2022/12/22 14:10:43;;;;;;;14.50;4.47;;;;;;;;;;5044355;28;20132;-69
2022/12/22 14:13:14;;;;;;;12.55;5.60;;;;;;;;;;5045108;28;20054;-71
2022/12/22 14:15:41;;;;;;;10.82;4.57;;;;;;;;;;5033320;28;20048;-70
2022/12/22 14:18:07;;;;;;;12.98;4.55;;;;;;;;;;5051244;28;20029;-71
2022/12/22 14:20:35;;;;;;;19.13;3.53;;;;;;;;;;5050941;28;20021;-70
2022/12/22 14:23:01;;;;;;;17.35;6.25;;;;;;;;;;5046943;28;20025;-69
2022/12/22 14:25:29;;;;;;;31.85;13.05;;;;;;;;;;5048394;28;20025;-69
2022/12/22 14:27:56;;;;;;;22.02;9.27;;;;;;;;;;5051129;28;20114;-69
2022/12/22 14:30:33;;;;;;;14.02;4.45;;;;;;;;;;5027093;28;20025;-70
2022/12/22 14:33:13;;;;;;;16.48;3.80;;;;;;;;;;5030390;28;20525;-73
2022/12/22 14:35:39;;;;;;;15.82;2.80;;;;;;;;;;5041332;28;20040;-70
2022/12/22 14:38:16;;;;;;;20.05;8.07;;;;;;;;;;5041403;28;20041;-69
2022/12/22 14:40:43;;;;;;;10.60;3.35;;;;;;;;;;5045525;28;20025;-73
2022/12/22 14:43:18;;;;;;;13.48;3.20;;;;;;;;;;5040540;28;20029;-74
2022/12/22 14:45:44;;;;;;;14.80;3.72;;;;;;;;;;5042184;28;20037;-71
2022/12/22 14:48:17;;;;;;;10.30;3.88;;;;;;;;;;5041817;28;20086;-70
2022/12/22 14:50:43;;;;;;;;;;;;;;;;;;5046324;28;20097;-70
2022/12/22 14:53:12;;;;;;;11.18;3.95;;;;;;;;;;5039497;28;19904;-70
2022/12/22 14:55:40;;;;;;;10.32;3.25;;;;;;;;;;5042688;28;20052;-72
2022/12/22 14:58:12;;;;;;;9.60;2.92;;;;;;;;;;5023347;28;20457;-71
2022/12/22 15:00:42;;;;;;;10.15;3.30;;;;;;;;;;5043807;28;20088;-69
2022/12/22 15:03:27;;;;;;;13.25;3.50;;;;;;;;;;5024923;28;20086;-71
2022/12/22 15:05:53;;;;;;;11.68;4.45;;;;;;;;;;5021730;28;20037;-71
2022/12/22 15:08:36;;;;;;;16.75;4.30;;;;;;;;;;5018583;28;20051;-70
2022/12/22 15:11:02;;;;;;;15.20;4.05;;;;;;;;;;5018887;28;20161;-69
2022/12/22 15:13:29;;;;;;;14.65;4.22;;;;;;;;;;5034185;28;20067;-68
2022/12/22 15:15:55;;;;;;;11.55;3.90;;;;;;;;;;5038895;28;20862;-74
2022/12/22 15:18:26;;;;;;;15.13;5.13;;;;;;;;;;5017597;28;20412;-70
2022/12/22 15:20:56;;;;;;;14.80;5.25;;;;;;;;;;5015331;28;20033;-70
2022/12/22 15:23:23;;;;;;;12.60;4.80;;;;;;;;;;5012322;28;20025;-70
2022/12/22 15:25:49;;;;;;;15.75;5.50;;;;;;;;;;5019150;28;20087;-69
2022/12/22 15:28:15;;;;;;;11.35;5.63;;;;;;;;;;5019439;28;20038;-70
2022/12/22 15:30:42;;;;;;;10.55;5.22;;;;;;;;;;5013597;28;20029;-70
2022/12/22 15:33:15;;;;;;;12.65;5.53;;;;;;;;;;5018731;28;20132;-70
2022/12/22 15:35:42;;;;;;;14.75;4.85;;;;;;;;;;5009335;28;20030;-70
2022/12/22 15:38:15;;;;;;;12.88;5.30;;;;;;;;;;5017984;28;20042;-73
2022/12/22 15:40:41;;;;;;;11.98;6.75;;;;;;;;;;5009806;28;20041;-72
2022/12/22 15:43:07;;;;;;;13.52;8.25;;;;;;;;;;5012337;28;20033;-70
2022/12/22 15:45:35;;;;;;;18.40;8.30;;;;;;;;;;5026112;28;20018;-71
2022/12/22 15:48:01;;;;;;;13.38;5.95;;;;;;;;;;5026412;28;20033;-70
2022/12/22 15:50:39;;;;;;;19.52;6.95;;;;;;;;;;5027063;28;20362;-69
2022/12/22 15:53:08;;;;;;;16.58;6.50;;;;;;;;;;5032660;28;20021;-70
2022/12/22 15:55:36;;;;;;;13.52;6.25;;;;;;;;;;5033947;28;20442;-69
2022/12/22 15:58:02;;;;;;;14.98;6.93;;;;;;;;;;5020086;28;20085;-72
2022/12/22 16:00:28;;;;;;;13.18;6.00;;;;;;;;;;5024375;28;20548;-69
2022/12/22 16:02:54;;;;;;;19.55;10.55;;;;;;;;;;5026356;28;20112;-69
2022/12/22 16:05:20;;;;;;;13.48;7.05;;;;;;;;;;5026344;28;20026;-70
2022/12/22 16:07:46;;;;;;;14.88;6.35;;;;;;;;;;5018509;28;20038;-72
2022/12/22 16:10:32;;;;;;;16.80;6.32;;;;;;;;;;5019942;28;20039;-70
2022/12/22 16:12:59;;;;;;;16.02;6.75;;;;;;;;;;5045579;28;20021;-69
2022/12/22 16:15:30;;;;;;;14.43;7.68;;;;;;;;;;5025795;28;20388;-70
2022/12/22 16:17:56;;;;;;;16.73;9.05;;;;;;;;;;5044792;28;20029;-74
2022/12/22 16:20:22;;;;;;;16.00;10.48;;;;;;;;;;5031059;28;20021;-73
2022/12/22 16:22:50;;;;;;;27.15;12.23;;;;;;;;;;5043544;28;20335;-71
2022/12/22 16:25:18;;;;;;;22.65;12.38;;;;;;;;;;5046097;28;20025;-74
2022/12/22 16:27:48;;;;;;;20.15;13.30;;;;;;;;;;5037929;28;20037;-73
2022/12/22 16:30:19;;;;;;;22.35;15.27;;;;;;;;;;5040023;28;20094;-70
2022/12/22 16:32:45;;;;;;;23.73;15.95;;;;;;;;;;5038041;28;20495;-71
2022/12/22 16:35:11;;;;;;;25.27;17.13;;;;;;;;;;5027034;28;20116;-72
2022/12/22 16:37:37;;;;;;;22.08;16.30;;;;;;;;;;5045104;28;20116;-71
2022/12/22 16:40:06;;;;;;;21.63;15.68;;;;;;;;;;5043973;28;20021;-71
2022/12/22 16:42:33;;;;;;;20.30;15.20;;;;;;;;;;5036016;28;20027;-71
2022/12/22 16:44:59;;;;;;;25.48;17.35;;;;;;;;;;5028336;28;20029;-70
2022/12/22 16:47:26;;;;;;;28.40;18.48;;;;;;;;;;5050034;28;20078;-71
2022/12/22 16:49:52;;;;;;;30.10;19.10;;;;;;;;;;5052747;28;20021;-70
2022/12/22 16:52:21;;;;;;;33.85;19.15;;;;;;;;;;5052540;28;20083;-70
2022/12/22 16:54:47;;;;;;;30.08;19.35;;;;;;;;;;5043042;28;20080;-70
2022/12/22 16:57:13;;;;;;;28.83;20.52;;;;;;;;;;5049111;28;20470;-70
2022/12/22 16:59:39;;;;;;;31.42;21.42;;;;;;;;;;5036731;28;20029;-71
2022/12/22 17:02:13;;;;;;;37.47;21.52;;;;;;;;;;5040699;28;20028;-69
2022/12/22 17:04:39;;;;;;;33.80;21.67;;;;;;;;;;5040519;28;20033;-70
2022/12/22 17:07:06;;;;;;;30.73;22.10;;;;;;;;;;5044058;28;20021;-70
2022/12/22 17:09:39;;;;;;;33.13;22.35;;;;;;;;;;5044602;28;20124;-70
2022/12/22 17:12:06;;;;;;;33.47;22.63;;;;;;;;;;5042801;28;20116;-70
2022/12/22 17:14:37;;;;;;;39.72;27.23;;;;;;;;;;5035120;28;20085;-70
2022/12/22 17:17:03;;;;;;;36.88;25.40;;;;;;;;;;5024139;28;20029;-72
2022/12/22 17:19:29;;;;;;;44.65;27.13;;;;;;;;;;5043015;28;20029;-71
2022/12/22 17:21:55;;;;;;;42.25;27.55;;;;;;;;;;5045997;28;20021;-70
2022/12/22 17:24:22;;;;;;;45.40;29.45;;;;;;;;;;5042532;28;20124;-69
2022/12/22 17:26:48;;;;;;;45.92;27.85;;;;;;;;;;5044286;28;20037;-73
2022/12/22 17:29:22;;;;;;;46.78;30.25;;;;;;;;;;5043807;28;20036;-70
2022/12/22 17:31:48;;;;;;;57.30;32.53;;;;;;;;;;5040309;28;20373;-69
2022/12/22 17:34:18;;;;;;;54.22;32.03;;;;;;;;;;5046325;28;20037;-70
2022/12/22 17:36:45;;;;;;;51.22;29.00;;;;;;;;;;5040640;28;20108;-69
2022/12/22 17:39:17;;;;;;;41.30;25.52;;;;;;;;;;5024140;28;20079;-69
2022/12/22 17:41:43;;;;;;;43.38;26.65;;;;;;;;;;5040887;28;20025;-70
2022/12/22 17:44:16;;;;;;;48.58;29.52;;;;;;;;;;5044880;28;20033;-69
2022/12/22 17:46:42;;;;;;;47.92;28.20;;;;;;;;;;5043824;28;20041;-73
2022/12/22 17:49:08;;;;;;;72.18;38.10;;;;;;;;;;5044278;28;20040;-70
2022/12/22 17:51:34;;;;;;;51.03;29.17;;;;;;;;;;5026880;28;20029;-71
2022/12/22 17:54:00;;;;;;;40.80;24.95;;;;;;;;;;5041190;28;20032;-72
2022/12/22 17:56:27;;;;;;;43.42;26.08;;;;;;;;;;5031231;28;20037;-72
2022/12/22 17:58:53;;;;;;;49.97;27.55;;;;;;;;;;5039422;28;20048;-72
2022/12/22 18:01:27;;;;;;;46.10;26.40;;;;;;;;;;5045886;28;20662;-70
2022/12/22 18:03:53;;;;;;;46.08;26.92;;;;;;;;;;5036350;28;20450;-70
2022/12/22 18:06:20;;;;;;;54.45;29.52;;;;;;;;;;5041844;28;20025;-72